Time;durP1;ratioP1;P1;durP2;ratioP2;P2;SDS_P1;SDS_P2;PMS_P1;PMS_P2;Temp;Humidity;BMP_temperature;BMP_pressure;BME280_temperature;BME280_humidity;BME280_pressure;Samples;Min_cycle;Max_cycle;Signal;HPM_P1;HPM_P2
2021/08/30 00:01:08;;;;;;;4.20;2.10;;;13.60;99.90;;;;;;5057277;28;20055;-90
2021/08/30 00:03:35;;;;;;;3.17;2.40;;;13.60;99.90;;;;;;5056838;28;20059;-90
2021/08/30 00:06:02;;;;;;;1.90;1.80;;;13.60;99.90;;;;;;5056569;28;20050;-90
2021/08/30 00:08:29;;;;;;;2.15;2.03;;;13.60;99.90;;;;;;5056669;28;20052;-90
2021/08/30 00:10:56;;;;;;;1.73;1.73;;;13.60;99.90;;;;;;5074446;28;20526;-89
2021/08/30 00:13:22;;;;;;;2.33;2.20;;;13.60;99.90;;;;;;5056825;28;20382;-90
2021/08/30 00:15:49;;;;;;;2.38;2.10;;;13.70;99.90;;;;;;5074297;28;20048;-90
2021/08/30 00:18:16;;;;;;;2.40;2.30;;;13.70;99.90;;;;;;5056903;28;20052;-90
2021/08/30 00:20:43;;;;;;;3.50;2.90;;;13.70;99.90;;;;;;5056360;28;20142;-90
2021/08/30 00:23:10;;;;;;;2.20;2.10;;;13.70;99.90;;;;;;5056693;28;20048;-90
2021/08/30 00:25:36;;;;;;;2.40;2.30;;;13.70;99.90;;;;;;5056317;28;20071;-90
2021/08/30 00:28:03;;;;;;;1.98;1.88;;;13.70;99.90;;;;;;5056633;28;20057;-89
2021/08/30 00:30:30;;;;;;;3.90;2.28;;;13.70;99.90;;;;;;5056079;28;20051;-89
2021/08/30 00:32:57;;;;;;;1.40;1.40;;;13.70;99.90;;;;;;5072901;28;20408;-89
2021/08/30 00:35:24;;;;;;;2.40;2.20;;;13.70;99.90;;;;;;5056235;28;20060;-89
2021/08/30 00:37:51;;;;;;;6.38;1.70;;;13.60;99.90;;;;;;5056435;28;20074;-89
2021/08/30 00:40:18;;;;;;;2.90;2.08;;;13.60;99.90;;;;;;5056321;28;20056;-89
2021/08/30 00:42:45;;;;;;;2.30;2.20;;;13.70;99.90;;;;;;5056025;28;20052;-88
2021/08/30 00:45:14;;;;;;;2.15;1.92;;;13.70;99.90;;;;;;5055876;28;20054;-88
2021/08/30 00:47:43;;;;;;;3.50;1.92;;;13.70;99.90;;;;;;5056184;28;20055;-88
2021/08/30 00:50:12;;;;;;;2.15;1.95;;;13.70;99.90;;;;;;5073706;28;20047;-88
2021/08/30 00:52:43;;;;;;;3.03;2.45;;;13.70;99.90;;;;;;5055635;28;20060;-88
2021/08/30 00:55:11;;;;;;;2.63;2.42;;;13.70;99.90;;;;;;5055946;28;20503;-88
2021/08/30 00:57:38;;;;;;;4.25;2.55;;;13.70;99.90;;;;;;5065011;28;20103;-88
2021/08/30 01:00:07;;;;;;;3.75;3.45;;;13.70;99.90;;;;;;5064456;28;20128;-88
2021/08/30 01:02:35;;;;;;;4.45;4.05;;;13.70;99.90;;;;;;5073260;28;20459;-88
2021/08/30 01:05:03;;;;;;;6.18;4.88;;;13.70;99.90;;;;;;5055803;28;20051;-87
2021/08/30 01:07:59;;;;;;;6.28;5.68;;;13.70;99.90;;;;;;5073420;28;20055;-87
2021/08/30 01:10:51;;;;;;;11.20;7.00;;;13.70;99.90;;;;;;5055670;28;20084;-87
2021/08/30 01:13:26;;;;;;;4.13;3.72;;;13.60;99.90;;;;;;5073049;28;20074;-88
2021/08/30 01:15:55;;;;;;;10.23;6.55;;;13.60;99.90;;;;;;5055824;28;20052;-88
2021/08/30 01:18:25;;;;;;;13.18;6.63;;;13.50;99.90;;;;;;5073236;28;20048;-88
2021/08/30 01:20:55;;;;;;;6.95;5.88;;;13.50;99.90;;;;;;5073320;28;20041;-87
2021/08/30 01:23:23;;;;;;;7.63;6.22;;;13.40;99.90;;;;;;5055610;28;20058;-88
2021/08/30 01:25:52;;;;;;;7.78;6.32;;;13.50;99.90;;;;;;5073291;28;20070;-88
2021/08/30 01:28:23;;;;;;;7.40;5.85;;;13.60;99.90;;;;;;5055337;28;20056;-88
2021/08/30 01:30:54;;;;;;;9.13;6.25;;;13.60;99.90;;;;;;5055500;28;20108;-88
2021/08/30 01:33:23;;;;;;;8.48;5.65;;;13.50;99.90;;;;;;5055306;28;20052;-88
2021/08/30 01:35:51;;;;;;;9.40;6.68;;;13.50;99.90;;;;;;5055589;28;20122;-88
2021/08/30 01:38:19;;;;;;;6.50;5.28;;;13.50;99.90;;;;;;5039066;28;20045;-89
2021/08/30 01:40:46;;;;;;;5.57;5.07;;;13.50;99.90;;;;;;5055475;28;20070;-89
2021/08/30 01:43:14;;;;;;;5.05;4.65;;;13.50;99.90;;;;;;5055846;28;20051;-88
2021/08/30 01:45:41;;;;;;;5.53;5.13;;;13.60;99.90;;;;;;5058971;28;20052;-88
2021/08/30 01:48:08;;;;;;;4.75;4.35;;;13.60;99.90;;;;;;5059468;28;20413;-87
2021/08/30 01:50:38;;;;;;;4.65;4.25;;;13.60;99.90;;;;;;5059279;28;20048;-88
2021/08/30 01:53:07;;;;;;;6.63;4.45;;;13.60;99.90;;;;;;5059337;28;20052;-87
2021/08/30 01:55:55;;;;;;;6.82;4.18;;;13.50;99.90;;;;;;5059181;28;20054;-88
2021/08/30 02:00:52;;;;;;;4.25;3.92;;;13.50;99.90;;;;;;5077278;28;20083;-88
2021/08/30 02:03:22;;;;;;;3.53;3.33;;;13.50;99.90;;;;;;5059208;28;20056;-88
2021/08/30 02:05:58;;;;;;;3.22;3.03;;;13.50;99.90;;;;;;5059023;28;20052;-86
2021/08/30 02:08:27;;;;;;;3.08;2.88;;;13.50;99.90;;;;;;5076396;28;20052;-88
2021/08/30 02:10:57;;;;;;;2.97;2.78;;;13.50;99.90;;;;;;5058706;28;20052;-89
2021/08/30 02:13:27;;;;;;;3.10;2.78;;;13.50;99.90;;;;;;5076209;28;20056;-88
2021/08/30 02:15:58;;;;;;;2.55;2.45;;;13.60;99.90;;;;;;5065148;28;20048;-89
2021/08/30 02:18:36;;;;;;;2.33;2.22;;;13.60;99.90;;;;;;5072151;28;20055;-89
2021/08/30 02:21:22;;;;;;;2.08;1.85;;;13.60;99.90;;;;;;5059058;28;20045;-88
2021/08/30 02:24:12;;;;;;;2.38;1.80;;;13.50;99.90;;;;;;5058625;28;20059;-88
2021/08/30 02:26:50;;;;;;;3.25;1.88;;;13.50;99.90;;;;;;5058672;28;20515;-87
2021/08/30 02:29:21;;;;;;;1.90;1.80;;;13.50;99.90;;;;;;5058567;28;20056;-88
2021/08/30 02:32:01;;;;;;;1.63;1.52;;;13.50;99.90;;;;;;5058618;28;20054;-87
2021/08/30 02:34:30;;;;;;;1.73;1.52;;;13.60;99.90;;;;;;5058635;28;20415;-88
2021/08/30 02:36:59;;;;;;;3.67;1.73;;;13.60;99.90;;;;;;5058224;28;20067;-88
2021/08/30 02:39:28;;;;;;;1.83;1.40;;;13.50;99.90;;;;;;5076042;28;20135;-87
2021/08/30 02:41:56;;;;;;;2.03;1.80;;;13.50;99.90;;;;;;5058617;28;20048;-88
2021/08/30 02:44:23;;;;;;;2.55;1.90;;;13.50;99.90;;;;;;5058279;28;20508;-87
2021/08/30 02:46:50;;;;;;;1.45;1.38;;;13.50;99.90;;;;;;5075293;28;20048;-87
2021/08/30 02:49:17;;;;;;;1.80;1.70;;;13.40;99.90;;;;;;5058080;28;20503;-88
2021/08/30 02:51:45;;;;;;;2.00;1.75;;;13.40;99.90;;;;;;5058014;28;20503;-88
2021/08/30 02:54:13;;;;;;;1.75;1.65;;;13.40;99.90;;;;;;5057615;28;20080;-87
2021/08/30 02:56:42;;;;;;;4.50;1.60;;;13.40;99.90;;;;;;5058110;28;20088;-88
2021/08/30 02:59:10;;;;;;;1.80;1.50;;;13.40;99.90;;;;;;5058281;28;20052;-88
2021/08/30 03:01:38;;;;;;;3.35;1.60;;;13.40;99.90;;;;;;5058055;28;20050;-88
2021/08/30 03:04:05;;;;;;;1.60;1.50;;;13.40;99.90;;;;;;5057832;28;20084;-89
2021/08/30 03:06:33;;;;;;;2.42;1.40;;;13.40;99.90;;;;;;5057903;28;20398;-88
2021/08/30 03:09:00;;;;;;;2.65;1.77;;;13.40;99.90;;;;;;5058031;28;20509;-89
2021/08/30 03:11:28;;;;;;;1.42;1.40;;;13.30;99.90;;;;;;5057933;28;20548;-89
2021/08/30 03:13:57;;;;;;;1.77;1.67;;;13.30;99.90;;;;;;5058007;28;20088;-89
2021/08/30 03:16:26;;;;;;;1.20;1.20;;;13.20;99.90;;;;;;5057448;28;20402;-88
2021/08/30 03:18:54;;;;;;;1.80;1.70;;;13.20;99.90;;;;;;5057603;28;20048;-89
2021/08/30 03:21:24;;;;;;;1.70;1.60;;;13.20;99.90;;;;;;5075382;28;20086;-89
2021/08/30 03:23:52;;;;;;;3.25;2.90;;;13.30;99.90;;;;;;5057947;28;20054;-90
2021/08/30 03:26:25;;;;;;;3.80;1.95;;;13.30;99.90;;;;;;5057677;28;20135;-90
2021/08/30 03:28:53;;;;;;;1.83;1.73;;;13.30;99.90;;;;;;5053329;28;20083;-90
2021/08/30 03:31:20;;;;;;;2.67;2.40;;;13.40;99.90;;;;;;5057630;28;20067;-90
2021/08/30 03:33:49;;;;;;;3.15;2.60;;;13.30;99.90;;;;;;5076463;28;20052;-90
2021/08/30 03:36:16;;;;;;;2.20;2.00;;;13.20;99.90;;;;;;5074598;28;20131;-90
2021/08/30 03:38:43;;;;;;;1.90;1.80;;;13.30;99.90;;;;;;5078039;28;20112;-90
2021/08/30 03:41:11;;;;;;;2.13;1.88;;;13.40;99.90;;;;;;5075139;28;20140;-90
2021/08/30 03:43:39;;;;;;;2.28;2.08;;;13.40;99.90;;;;;;5057503;28;20489;-90
2021/08/30 03:46:06;;;;;;;4.30;2.33;;;13.40;99.90;;;;;;5074660;28;20044;-90
2021/08/30 03:48:34;;;;;;;2.65;2.45;;;13.40;99.90;;;;;;5057247;28;20520;-90
2021/08/30 03:51:03;;;;;;;4.63;2.30;;;13.20;99.90;;;;;;5057545;28;20144;-90
2021/08/30 03:53:32;;;;;;;2.08;1.80;;;13.30;99.90;;;;;;5074669;28;20114;-90
2021/08/30 03:55:59;;;;;;;1.55;1.45;;;13.30;99.90;;;;;;5057356;28;20050;-91
2021/08/30 03:58:27;;;;;;;2.92;2.70;;;13.30;99.90;;;;;;5075016;28;20045;-91
2021/08/30 04:00:54;;;;;;;4.45;2.53;;;13.30;99.90;;;;;;5057408;28;20054;-90
2021/08/30 04:03:23;;;;;;;2.15;2.05;;;13.30;99.90;;;;;;5057238;28;20048;-91
2021/08/30 04:05:51;;;;;;;1.83;1.67;;;13.30;99.90;;;;;;5056564;28;20068;-91
2021/08/30 04:08:18;;;;;;;1.90;1.80;;;13.30;99.90;;;;;;5056996;28;20059;-90
2021/08/30 04:10:45;;;;;;;2.15;1.60;;;13.30;99.90;;;;;;5056935;28;20132;-90
2021/08/30 04:13:12;;;;;;;3.33;2.15;;;13.30;99.90;;;;;;5056996;28;20071;-89
2021/08/30 04:15:39;;;;;;;1.92;1.63;;;13.40;99.90;;;;;;5056902;28;20501;-89
2021/08/30 04:18:06;;;;;;;1.92;1.83;;;13.30;99.90;;;;;;5056957;28;20056;-88
2021/08/30 04:20:32;;;;;;;2.10;2.00;;;13.40;99.90;;;;;;5057043;28;20496;-89
2021/08/30 04:22:59;;;;;;;2.22;1.88;;;13.30;99.90;;;;;;5057037;28;20143;-89
2021/08/30 04:25:26;;;;;;;2.33;2.22;;;13.30;99.90;;;;;;5059539;28;20048;-90
2021/08/30 04:27:52;;;;;;;2.85;2.63;;;13.20;99.90;;;;;;5057608;28;20056;-89
2021/08/30 04:30:19;;;;;;;4.03;2.58;;;13.10;99.90;;;;;;5056121;28;20654;-89
2021/08/30 04:32:46;;;;;;;2.47;2.33;;;13.10;99.90;;;;;;5056098;28;20052;-90
2021/08/30 04:35:13;;;;;;;2.53;2.20;;;13.20;99.90;;;;;;5056673;28;20354;-90
2021/08/30 04:37:40;;;;;;;4.00;2.92;;;13.20;99.90;;;;;;5056764;28;20482;-90
2021/08/30 04:40:08;;;;;;;5.68;3.67;;;13.20;99.90;;;;;;5056732;28;20131;-90
2021/08/30 04:42:36;;;;;;;3.30;3.00;;;13.20;99.90;;;;;;5056503;28;20230;-89
2021/08/30 04:45:03;;;;;;;3.83;2.78;;;13.30;99.90;;;;;;5056329;28;20074;-90
2021/08/30 04:47:31;;;;;;;3.83;3.63;;;13.30;99.90;;;;;;5056211;28;20467;-90
2021/08/30 04:49:58;;;;;;;3.90;3.60;;;13.30;99.90;;;;;;5056725;28;20058;-89
2021/08/30 04:52:25;;;;;;;4.63;4.07;;;13.30;99.90;;;;;;5058851;28;20083;-89
2021/08/30 04:54:51;;;;;;;4.72;4.28;;;13.30;99.90;;;;;;5076670;28;20068;-90
2021/08/30 04:57:18;;;;;;;6.60;4.25;;;13.30;99.90;;;;;;5061177;28;20409;-90
2021/08/30 04:59:45;;;;;;;3.70;3.40;;;13.30;99.90;;;;;;5073855;28;20052;-89
2021/08/30 05:02:12;;;;;;;4.22;3.83;;;13.30;99.90;;;;;;5056197;28;20049;-90
2021/08/30 05:04:39;;;;;;;3.50;3.30;;;13.30;99.90;;;;;;5073525;28;20052;-90
2021/08/30 05:07:06;;;;;;;4.03;3.60;;;13.40;99.90;;;;;;5055827;28;20083;-90
2021/08/30 05:09:33;;;;;;;4.00;3.53;;;13.50;99.90;;;;;;5056046;28;20131;-91
2021/08/30 05:11:59;;;;;;;5.55;3.38;;;13.50;99.90;;;;;;5056064;28;20044;-91
2021/08/30 05:14:26;;;;;;;3.95;3.15;;;13.60;99.90;;;;;;5055460;28;20132;-90
2021/08/30 05:16:53;;;;;;;3.30;3.10;;;13.60;99.90;;;;;;5055899;28;20059;-89
2021/08/30 05:19:20;;;;;;;3.63;3.38;;;13.60;99.90;;;;;;5055719;28;20262;-90
2021/08/30 05:21:47;;;;;;;2.70;2.60;;;13.60;99.90;;;;;;5073404;28;20045;-90
2021/08/30 05:24:14;;;;;;;3.70;3.40;;;13.70;99.90;;;;;;5055660;28;20429;-90
2021/08/30 05:26:41;;;;;;;3.63;3.42;;;13.70;99.90;;;;;;5073108;28;20052;-90
2021/08/30 05:29:07;;;;;;;3.83;3.53;;;13.70;99.90;;;;;;5056187;28;20056;-90
2021/08/30 05:31:34;;;;;;;4.10;3.80;;;13.70;99.90;;;;;;5055715;28;20500;-90
2021/08/30 05:34:01;;;;;;;3.53;3.33;;;13.70;99.90;;;;;;5056185;28;20056;-91
2021/08/30 05:36:28;;;;;;;3.65;3.45;;;13.80;99.90;;;;;;5055900;28;20387;-90
2021/08/30 05:38:56;;;;;;;3.25;3.03;;;13.80;99.90;;;;;;5054838;28;20464;-89
2021/08/30 05:41:23;;;;;;;3.45;3.15;;;13.80;99.90;;;;;;5056054;28;20040;-91
2021/08/30 05:43:49;;;;;;;3.40;3.20;;;13.80;99.90;;;;;;5055995;28;20044;-91
2021/08/30 05:46:16;;;;;;;3.17;2.97;;;13.80;99.90;;;;;;5055811;28;20473;-90
2021/08/30 05:48:48;;;;;;;6.07;5.53;;;13.90;99.90;;;;;;5055836;28;20545;-90
2021/08/30 05:51:15;;;;;;;14.98;13.48;;;13.80;99.90;;;;;;5055864;28;20042;-90
2021/08/30 05:53:42;;;;;;;143.32;106.40;;;13.80;99.90;;;;;;5055717;28;20048;-90
2021/08/30 05:56:09;;;;;;;115.13;87.22;;;13.80;99.90;;;;;;5055422;28;20056;-90
2021/08/30 05:58:37;;;;;;;32.60;27.30;;;13.80;99.90;;;;;;5073306;28;20054;-90
2021/08/30 06:01:05;;;;;;;15.57;13.98;;;13.90;99.90;;;;;;5055690;28;20120;-90
2021/08/30 06:03:32;;;;;;;13.65;12.25;;;13.90;99.90;;;;;;5055620;28;20048;-90
2021/08/30 06:05:59;;;;;;;6.15;5.55;;;14.00;99.90;;;;;;5055739;28;20102;-89
2021/08/30 06:08:27;;;;;;;8.65;7.95;;;14.10;99.90;;;;;;5055828;28;20044;-90
2021/08/30 06:10:56;;;;;;;4.72;4.38;;;14.10;99.90;;;;;;5058838;28;20131;-89
2021/08/30 06:13:24;;;;;;;5.68;5.28;;;14.20;99.90;;;;;;5092962;28;20120;-90
2021/08/30 06:15:51;;;;;;;4.82;4.43;;;14.20;99.90;;;;;;5063593;28;20041;-90
2021/08/30 06:18:18;;;;;;;3.20;3.00;;;14.20;99.90;;;;;;5055198;28;20044;-90
2021/08/30 06:20:45;;;;;;;4.10;3.80;;;14.20;99.90;;;;;;5055513;28;20045;-89
2021/08/30 06:23:16;;;;;;;4.32;4.03;;;14.30;99.90;;;;;;5055928;28;20463;-90
2021/08/30 06:25:43;;;;;;;5.85;4.35;;;14.30;99.90;;;;;;5055533;28;20132;-89
2021/08/30 06:28:10;;;;;;;5.60;4.82;;;14.40;99.90;;;;;;5055564;28;20053;-89
2021/08/30 06:30:36;;;;;;;5.97;5.30;;;14.30;99.90;;;;;;5057890;28;20048;-90
2021/08/30 06:33:03;;;;;;;6.15;5.55;;;14.30;99.90;;;;;;5059201;28;20052;-90
2021/08/30 06:35:31;;;;;;;5.15;4.75;;;14.30;99.90;;;;;;5059085;28;20044;-90
2021/08/30 06:37:59;;;;;;;6.57;6.05;;;14.40;99.90;;;;;;5058997;28;20052;-90
2021/08/30 06:40:25;;;;;;;6.80;6.20;;;14.40;99.90;;;;;;5058972;28;20136;-89
2021/08/30 06:42:52;;;;;;;6.43;5.95;;;14.30;99.90;;;;;;5059035;28;20457;-90
2021/08/30 06:45:22;;;;;;;6.70;6.03;;;14.20;99.90;;;;;;5059028;28;20056;-89
2021/08/30 06:47:50;;;;;;;7.63;7.03;;;14.20;99.90;;;;;;5059949;28;20469;-90
2021/08/30 06:50:17;;;;;;;10.13;9.25;;;14.20;99.90;;;;;;5060764;28;20136;-90
2021/08/30 06:52:44;;;;;;;9.30;8.57;;;14.20;99.90;;;;;;5058626;28;20067;-90
2021/08/30 06:55:11;;;;;;;10.57;9.68;;;14.30;99.90;;;;;;5058635;28;20564;-90
2021/08/30 06:57:38;;;;;;;8.35;7.72;;;14.30;99.90;;;;;;5058749;28;20470;-90
2021/08/30 07:00:06;;;;;;;9.18;8.38;;;14.40;99.90;;;;;;5058586;28;20579;-90
2021/08/30 07:02:33;;;;;;;9.73;8.77;;;14.50;99.90;;;;;;5058376;28;20052;-89
2021/08/30 07:05:00;;;;;;;8.85;8.13;;;14.50;99.90;;;;;;5059053;28;20083;-90
2021/08/30 07:07:27;;;;;;;8.45;7.75;;;14.50;99.90;;;;;;5059054;28;20140;-90
2021/08/30 07:09:54;;;;;;;6.90;6.40;;;14.60;99.90;;;;;;5058526;28;20044;-90
2021/08/30 07:12:21;;;;;;;7.70;7.10;;;14.60;99.90;;;;;;5058202;28;20052;-91
2021/08/30 07:14:52;;;;;;;9.55;6.93;;;14.60;99.90;;;;;;5058542;28;20139;-90
2021/08/30 07:17:19;;;;;;;7.40;6.80;;;14.70;99.90;;;;;;5058244;28;20052;-90
2021/08/30 07:19:46;;;;;;;6.70;6.10;;;14.80;99.90;;;;;;5058283;28;20052;-90
2021/08/30 07:22:13;;;;;;;5.60;5.20;;;14.80;99.90;;;;;;5058351;28;20135;-90
2021/08/30 07:24:40;;;;;;;9.73;4.88;;;14.80;99.90;;;;;;5058130;28;20045;-90
2021/08/30 07:27:07;;;;;;;5.18;4.88;;;14.90;99.90;;;;;;5058248;28;20044;-90
2021/08/30 07:29:34;;;;;;;5.30;5.00;;;15.10;99.90;;;;;;5057828;28;20048;-90
2021/08/30 07:32:02;;;;;;;4.82;4.53;;;15.20;99.90;;;;;;5060008;28;20051;-90
2021/08/30 07:34:29;;;;;;;5.05;4.60;;;15.20;99.90;;;;;;5071527;28;20080;-91
2021/08/30 07:36:56;;;;;;;4.97;4.53;;;15.20;99.90;;;;;;5056932;28;20044;-90
2021/08/30 07:39:23;;;;;;;4.68;4.28;;;15.30;99.90;;;;;;5057598;28;20444;-90
2021/08/30 07:41:51;;;;;;;4.28;3.92;;;15.30;99.90;;;;;;5057330;28;20074;-91
2021/08/30 07:44:18;;;;;;;6.25;4.43;;;15.60;99.90;;;;;;5057700;28;20052;-91
2021/08/30 07:46:45;;;;;;;3.88;3.58;;;15.80;99.90;;;;;;5057196;28;20052;-90
2021/08/30 07:49:11;;;;;;;3.90;3.70;;;16.00;99.90;;;;;;5057317;28;20139;-90
2021/08/30 07:51:41;;;;;;;3.80;3.60;;;16.00;99.90;;;;;;5057388;28;20132;-90
2021/08/30 07:54:09;;;;;;;3.50;3.30;;;16.20;99.90;;;;;;5057195;28;20123;-91
2021/08/30 07:56:40;;;;;;;4.20;4.00;;;16.40;99.90;;;;;;5056897;28;20155;-91
2021/08/30 07:59:09;;;;;;;3.08;2.97;;;16.70;99.90;;;;;;5057301;28;20053;-91
2021/08/30 08:01:36;;;;;;;3.42;3.25;;;16.80;99.90;;;;;;5056980;28;20052;-91
2021/08/30 08:04:04;;;;;;;3.67;3.35;;;17.00;99.90;;;;;;5057809;28;20102;-91
2021/08/30 08:06:31;;;;;;;3.00;2.67;;;17.30;99.90;;;;;;5056579;28;20456;-90
2021/08/30 08:08:58;;;;;;;2.88;2.78;;;17.60;99.90;;;;;;5057091;28;20052;-91
2021/08/30 08:11:25;;;;;;;3.83;3.40;;;17.80;99.90;;;;;;5057128;28;20515;-90
2021/08/30 08:13:51;;;;;;;3.90;3.67;;;17.80;99.90;;;;;;5057134;28;20048;-91
2021/08/30 08:16:18;;;;;;;3.42;3.20;;;17.90;99.90;;;;;;5056155;28;20140;-90
2021/08/30 08:18:45;;;;;;;3.92;3.70;;;17.80;99.90;;;;;;5056919;28;20055;-90
2021/08/30 08:21:12;;;;;;;3.75;3.53;;;17.50;99.90;;;;;;5056728;28;20052;-90
2021/08/30 08:23:39;;;;;;;4.38;4.07;;;17.30;99.90;;;;;;5056585;28;20108;-89
2021/08/30 08:26:06;;;;;;;6.60;4.15;;;17.00;99.90;;;;;;5056085;28;20052;-89
2021/08/30 08:28:32;;;;;;;3.80;3.60;;;16.80;99.90;;;;;;5055916;28;20049;-90
2021/08/30 08:30:59;;;;;;;3.53;3.40;;;16.50;99.90;;;;;;5073956;28;20052;-90
2021/08/30 08:33:26;;;;;;;4.15;3.85;;;16.50;99.90;;;;;;5056711;28;20055;-90
2021/08/30 08:35:53;;;;;;;4.40;4.07;;;16.60;99.90;;;;;;5073810;28;20059;-90
2021/08/30 08:38:22;;;;;;;4.35;4.05;;;16.60;99.90;;;;;;5073646;28;20386;-90
2021/08/30 08:40:51;;;;;;;5.50;5.10;;;16.50;99.90;;;;;;5056228;28;20052;-89
2021/08/30 08:43:20;;;;;;;5.18;4.82;;;16.60;99.90;;;;;;5056068;28;20044;-90
2021/08/30 08:45:49;;;;;;;5.32;4.82;;;16.80;99.90;;;;;;5056102;28;20048;-91
2021/08/30 08:48:19;;;;;;;4.95;4.63;;;17.10;99.90;;;;;;5056249;28;20048;-90
2021/08/30 08:50:46;;;;;;;4.30;3.90;;;17.90;99.90;;;;;;5086393;28;20056;-92
2021/08/30 08:53:13;;;;;;;3.92;3.72;;;19.00;99.90;;;;;;5067072;28;20046;-91
2021/08/30 08:55:40;;;;;;;5.93;3.70;;;19.90;99.90;;;;;;5055149;28;20068;-89
2021/08/30 08:58:15;;;;;;;3.80;3.60;;;20.30;99.90;;;;;;5055572;28;20417;-90
2021/08/30 09:00:45;;;;;;;4.85;3.40;;;20.40;99.90;;;;;;5056010;28;20412;-91
2021/08/30 09:03:14;;;;;;;2.75;2.65;;;20.20;99.90;;;;;;5055995;28;20103;-92
2021/08/30 09:05:41;;;;;;;2.75;2.55;;;19.10;99.90;;;;;;5073549;28;20083;-90
2021/08/30 09:08:28;;;;;;;3.17;2.97;;;18.10;99.90;;;;;;5055857;28;20135;-91
2021/08/30 09:10:55;;;;;;;2.75;2.58;;;17.40;99.90;;;;;;5055707;28;20123;-91
2021/08/30 09:13:31;;;;;;;2.60;2.50;;;16.70;99.90;;;;;;5056058;28;20045;-91
2021/08/30 09:15:59;;;;;;;2.30;2.20;;;16.40;99.90;;;;;;5055719;28;20055;-91
2021/08/30 09:18:31;;;;;;;2.20;2.10;;;16.20;99.90;;;;;;5055744;28;20048;-91
2021/08/30 09:21:11;;;;;;;2.15;2.00;;;16.20;99.90;;;;;;5073073;28;20059;-91
2021/08/30 09:23:43;;;;;;;2.10;2.00;;;16.30;99.90;;;;;;5073454;28;20145;-91
2021/08/30 09:26:17;;;;;;;1.90;1.80;;;16.70;99.90;;;;;;5055694;28;20044;-92
2021/08/30 09:28:57;;;;;;;2.05;1.95;;;17.20;99.90;;;;;;5073038;28;20148;-91
2021/08/30 09:31:24;;;;;;;2.35;2.10;;;17.70;99.90;;;;;;5055733;28;20080;-91
2021/08/30 09:33:52;;;;;;;3.63;2.47;;;18.60;99.90;;;;;;5055637;28;20045;-90
2021/08/30 09:36:20;;;;;;;3.92;1.75;;;19.90;99.90;;;;;;5055166;28;20048;-91
2021/08/30 09:38:54;;;;;;;1.95;1.85;;;22.80;99.90;;;;;;5055091;28;20136;-90
2021/08/30 09:41:21;;;;;;;1.95;1.70;;;25.60;99.90;;;;;;5055299;28;20155;-90
2021/08/30 09:43:59;;;;;;;1.23;1.23;;;28.10;99.90;;;;;;5073331;28;20135;-88
2021/08/30 09:46:31;;;;;;;1.30;1.30;;;30.30;99.90;;;;;;5055322;28;20131;-88
2021/08/30 09:49:08;;;;;;;2.50;2.00;;;30.00;94.40;;;;;;5055735;28;20045;-88
2021/08/30 09:51:39;;;;;;;2.40;2.30;;;27.20;95.30;;;;;;5055424;28;20086;-89
2021/08/30 09:54:07;;;;;;;2.50;2.10;;;25.70;99.90;;;;;;5055202;28;20127;-86
2021/08/30 09:56:39;;;;;;;1.80;1.73;;;25.00;99.90;;;;;;5055095;28;20507;-88
2021/08/30 09:59:07;;;;;;;1.95;1.85;;;23.80;99.90;;;;;;5055908;28;20055;-89
2021/08/30 10:01:38;;;;;;;1.70;1.63;;;23.10;99.90;;;;;;5055311;28;20139;-88
2021/08/30 10:04:07;;;;;;;2.00;1.90;;;22.50;99.90;;;;;;5055340;28;20048;-89
2021/08/30 10:06:40;;;;;;;1.30;1.30;;;21.40;99.90;;;;;;5058744;28;20477;-88
2021/08/30 10:09:14;;;;;;;2.10;1.60;;;20.90;99.90;;;;;;5071319;28;20059;-88
2021/08/30 10:11:43;;;;;;;1.48;1.40;;;20.40;99.90;;;;;;5067993;28;20075;-88
2021/08/30 10:14:16;;;;;;;1.90;1.30;;;20.00;99.90;;;;;;5057825;28;20547;-88
2021/08/30 10:16:43;;;;;;;1.70;1.60;;;19.80;99.90;;;;;;5058884;28;20143;-88
2021/08/30 10:19:12;;;;;;;2.97;2.60;;;20.20;99.90;;;;;;5059286;28;20076;-89
2021/08/30 10:21:44;;;;;;;2.30;2.20;;;20.20;99.90;;;;;;5059015;28;20123;-89
2021/08/30 10:24:16;;;;;;;2.13;1.40;;;20.60;99.90;;;;;;5058829;28;20074;-89
2021/08/30 10:26:46;;;;;;;2.05;1.27;;;21.60;99.90;;;;;;5058844;28;20044;-88
2021/08/30 10:29:14;;;;;;;2.50;0.98;;;21.60;99.90;;;;;;5055236;28;20053;-88
2021/08/30 10:31:53;;;;;;;2.00;1.77;;;21.50;99.90;;;;;;5056350;28;20103;-88
2021/08/30 10:34:25;;;;;;;2.20;2.00;;;21.70;99.90;;;;;;5055198;28;20049;-88
2021/08/30 10:36:53;;;;;;;0.93;0.93;;;22.60;99.90;;;;;;5055199;28;20088;-88
2021/08/30 10:39:20;;;;;;;0.90;0.90;;;22.60;99.90;;;;;;5055145;28;20291;-88
2021/08/30 10:41:47;;;;;;;1.13;1.13;;;22.40;99.90;;;;;;5056121;28;20477;-88
2021/08/30 10:44:21;;;;;;;1.10;1.00;;;22.20;99.90;;;;;;5055134;28;20136;-89
2021/08/30 10:46:51;;;;;;;1.65;1.02;;;21.80;99.90;;;;;;5054763;28;20045;-88
2021/08/30 10:49:20;;;;;;;1.02;1.02;;;21.50;99.90;;;;;;5054086;28;20041;-88
2021/08/30 10:51:48;;;;;;;1.23;1.20;;;21.30;99.90;;;;;;5055458;28;20238;-88
2021/08/30 10:54:19;;;;;;;2.05;1.20;;;21.10;99.90;;;;;;5055525;28;20049;-88
2021/08/30 10:56:57;;;;;;;1.80;1.08;;;20.70;99.90;;;;;;5054233;28;20394;-87
2021/08/30 10:59:27;;;;;;;1.70;1.60;;;21.20;99.90;;;;;;5054203;28;20150;-89
2021/08/30 11:02:00;;;;;;;1.30;1.30;;;22.30;99.90;;;;;;5054228;28;20067;-87
2021/08/30 11:04:33;;;;;;;1.88;1.40;;;24.00;99.90;;;;;;5054228;28;20478;-89
2021/08/30 11:07:00;;;;;;;1.17;1.15;;;24.30;99.90;;;;;;5054218;28;20152;-87
2021/08/30 11:09:28;;;;;;;2.42;1.63;;;24.80;99.90;;;;;;5054140;28;20099;-86
2021/08/30 11:12:05;;;;;;;1.17;1.17;;;24.10;99.90;;;;;;5054708;28;20052;-86
2021/08/30 11:14:35;;;;;;;1.40;1.40;;;23.70;99.90;;;;;;5053229;28;20056;-84
2021/08/30 11:17:02;;;;;;;1.50;1.50;;;24.80;99.90;;;;;;5054330;28;20470;-85
2021/08/30 11:19:30;;;;;;;1.30;1.30;;;24.80;99.90;;;;;;5054719;28;20045;-85
2021/08/30 11:21:59;;;;;;;1.52;1.52;;;24.70;99.90;;;;;;5053611;28;20056;-86
2021/08/30 11:24:26;;;;;;;1.80;1.70;;;24.30;99.90;;;;;;5053486;28;20484;-85
2021/08/30 11:26:55;;;;;;;1.88;1.77;;;23.60;99.90;;;;;;5056488;28;20102;-87
2021/08/30 11:29:22;;;;;;;2.00;1.90;;;22.60;99.90;;;;;;5070710;28;20091;-85
2021/08/30 11:31:50;;;;;;;1.58;1.58;;;21.80;99.90;;;;;;5054347;28;20088;-85
2021/08/30 11:34:31;;;;;;;1.60;1.50;;;21.20;99.90;;;;;;5054303;28;20049;-85
2021/08/30 11:37:00;;;;;;;3.03;1.75;;;20.60;99.90;;;;;;5053104;28;20045;-86
2021/08/30 11:39:33;;;;;;;2.20;2.10;;;20.20;99.90;;;;;;5053386;28;20140;-85
2021/08/30 11:42:03;;;;;;;2.47;2.38;;;19.70;99.90;;;;;;5053126;28;20080;-87
2021/08/30 11:44:32;;;;;;;2.40;2.30;;;19.00;99.90;;;;;;5053181;28;20128;-85
2021/08/30 11:47:01;;;;;;;2.75;2.40;;;18.70;99.90;;;;;;5053161;28;20099;-86
2021/08/30 11:49:30;;;;;;;4.10;2.50;;;18.70;99.90;;;;;;5053091;28;20568;-86
2021/08/30 11:52:00;;;;;;;2.70;2.60;;;18.50;99.90;;;;;;5053601;28;20048;-86
2021/08/30 11:54:32;;;;;;;3.08;2.55;;;18.60;99.90;;;;;;5052944;28;20431;-87
2021/08/30 11:57:08;;;;;;;2.45;2.35;;;18.70;99.90;;;;;;5053986;28;20489;-87
2021/08/30 11:59:40;;;;;;;2.88;2.58;;;18.80;99.90;;;;;;5054484;28;20382;-86
2021/08/30 12:02:09;;;;;;;4.35;3.22;;;19.30;99.90;;;;;;5053497;28;20059;-87
2021/08/30 12:04:38;;;;;;;3.13;2.72;;;19.60;99.90;;;;;;5052939;28;20056;-86
2021/08/30 12:07:12;;;;;;;3.40;3.20;;;20.30;99.90;;;;;;5053552;28;20478;-86
2021/08/30 12:09:52;;;;;;;2.63;2.53;;;20.50;99.90;;;;;;5051321;28;20128;-87
2021/08/30 12:12:23;;;;;;;5.10;3.00;;;20.40;99.90;;;;;;5049907;28;20104;-86
2021/08/30 12:15:00;;;;;;;3.03;2.83;;;20.50;99.90;;;;;;5052539;28;20041;-87
2021/08/30 12:17:30;;;;;;;3.00;2.88;;;20.50;99.90;;;;;;5051883;28;20048;-85
2021/08/30 12:20:04;;;;;;;3.00;2.80;;;20.40;99.90;;;;;;5050041;28;20061;-86
2021/08/30 12:22:35;;;;;;;3.40;3.20;;;20.20;99.90;;;;;;5052432;28;20076;-87
2021/08/30 12:25:06;;;;;;;3.03;2.85;;;20.50;99.90;;;;;;5051794;28;20040;-87
2021/08/30 12:27:35;;;;;;;5.25;3.03;;;20.40;99.90;;;;;;5051619;28;20064;-86
2021/08/30 12:30:32;;;;;;;3.35;3.05;;;20.60;99.90;;;;;;5052328;28;20084;-86
2021/08/30 12:32:58;;;;;;;3.78;3.00;;;20.70;99.90;;;;;;5051532;28;20052;-85
2021/08/30 12:35:31;;;;;;;4.38;3.30;;;20.70;99.90;;;;;;5052102;28;20048;-85
2021/08/30 12:38:01;;;;;;;3.40;3.20;;;20.90;99.90;;;;;;5052429;28;20047;-85
2021/08/30 12:40:29;;;;;;;4.05;3.45;;;20.80;99.90;;;;;;5052667;28;20083;-86
2021/08/30 12:42:57;;;;;;;3.63;3.38;;;20.70;99.90;;;;;;5054079;28;20051;-85
2021/08/30 12:45:24;;;;;;;3.40;3.30;;;20.20;99.90;;;;;;5053356;28;20048;-86
2021/08/30 12:47:51;;;;;;;4.00;3.70;;;19.50;99.90;;;;;;5069767;28;20037;-85
2021/08/30 12:50:19;;;;;;;3.67;3.47;;;19.40;99.90;;;;;;5052436;28;20080;-85
2021/08/30 12:52:46;;;;;;;3.50;3.30;;;19.20;99.90;;;;;;5051679;28;20060;-85
2021/08/30 12:55:14;;;;;;;5.03;4.38;;;18.90;99.90;;;;;;5052863;28;20060;-86
2021/08/30 12:57:40;;;;;;;3.97;3.78;;;18.50;99.90;;;;;;5053133;28;20103;-86